sensor_id;sensor_type;location;lat;lon;timestamp;P1;durP1;ratioP1;P2;durP2;ratioP2
21554;SDS011;10938;44.794;-0.676;2023-05-29T00:02:09;9.07;;;4.10;;
21554;SDS011;10938;44.794;-0.676;2023-05-29T00:04:34;7.47;;;4.07;;
21554;SDS011;10938;44.794;-0.676;2023-05-29T00:07:00;10.75;;;4.15;;
21554;SDS011;10938;44.794;-0.676;2023-05-29T00:09:26;6.50;;;4.03;;
21554;SDS011;10938;44.794;-0.676;2023-05-29T00:11:51;9.73;;;4.38;;
21554;SDS011;10938;44.794;-0.676;2023-05-29T00:14:20;8.70;;;4.00;;
21554;SDS011;10938;44.794;-0.676;2023-05-29T00:16:47;7.30;;;3.97;;
21554;SDS011;10938;44.794;-0.676;2023-05-29T00:19:14;5.07;;;3.67;;
21554;SDS011;10938;44.794;-0.676;2023-05-29T00:21:41;7.07;;;3.65;;
21554;SDS011;10938;44.794;-0.676;2023-05-29T00:24:07;5.23;;;3.70;;
21554;SDS011;10938;44.794;-0.676;2023-05-29T00:26:32;5.00;;;3.58;;
21554;SDS011;10938;44.794;-0.676;2023-05-29T00:28:57;7.73;;;3.80;;
21554;SDS011;10938;44.794;-0.676;2023-05-29T00:31:22;7.53;;;3.67;;
21554;SDS011;10938;44.794;-0.676;2023-05-29T00:33:49;5.30;;;3.50;;
21554;SDS011;10938;44.794;-0.676;2023-05-29T00:36:15;5.50;;;4.20;;
21554;SDS011;10938;44.794;-0.676;2023-05-29T00:38:44;8.70;;;4.35;;
21554;SDS011;10938;44.794;-0.676;2023-05-29T00:41:13;5.25;;;3.90;;
21554;SDS011;10938;44.794;-0.676;2023-05-29T00:43:39;7.00;;;3.95;;
21554;SDS011;10938;44.794;-0.676;2023-05-29T00:46:04;4.87;;;3.80;;
21554;SDS011;10938;44.794;-0.676;2023-05-29T00:48:29;9.38;;;4.75;;
21554;SDS011;10938;44.794;-0.676;2023-05-29T00:50:55;10.23;;;4.72;;
21554;SDS011;10938;44.794;-0.676;2023-05-29T00:53:20;6.88;;;3.97;;
21554;SDS011;10938;44.794;-0.676;2023-05-29T00:55:46;8.68;;;3.78;;
21554;SDS011;10938;44.794;-0.676;2023-05-29T00:58:11;5.90;;;4.10;;
21554;SDS011;10938;44.794;-0.676;2023-05-29T01:00:37;5.60;;;3.63;;
21554;SDS011;10938;44.794;-0.676;2023-05-29T01:03:03;8.43;;;3.50;;
21554;SDS011;10938;44.794;-0.676;2023-05-29T01:05:30;7.20;;;3.90;;
21554;SDS011;10938;44.794;-0.676;2023-05-29T01:07:57;8.02;;;4.40;;
21554;SDS011;10938;44.794;-0.676;2023-05-29T01:10:22;7.67;;;4.20;;
21554;SDS011;10938;44.794;-0.676;2023-05-29T01:17:54;7.38;;;4.35;;
21554;SDS011;10938;44.794;-0.676;2023-05-29T01:23:07;8.27;;;4.97;;
21554;SDS011;10938;44.794;-0.676;2023-05-29T01:28:00;7.07;;;4.13;;
21554;SDS011;10938;44.794;-0.676;2023-05-29T01:30:28;8.80;;;3.92;;
21554;SDS011;10938;44.794;-0.676;2023-05-29T01:32:53;6.15;;;3.80;;
21554;SDS011;10938;44.794;-0.676;2023-05-29T01:35:19;11.73;;;3.92;;
21554;SDS011;10938;44.794;-0.676;2023-05-29T01:37:45;6.05;;;3.60;;
21554;SDS011;10938;44.794;-0.676;2023-05-29T01:40:10;6.70;;;3.50;;
21554;SDS011;10938;44.794;-0.676;2023-05-29T01:42:35;6.35;;;3.25;;
21554;SDS011;10938;44.794;-0.676;2023-05-29T01:45:01;9.00;;;4.03;;
21554;SDS011;10938;44.794;-0.676;2023-05-29T01:47:26;5.38;;;3.88;;
21554;SDS011;10938;44.794;-0.676;2023-05-29T01:49:52;5.75;;;4.18;;
21554;SDS011;10938;44.794;-0.676;2023-05-29T01:52:17;6.78;;;4.03;;
21554;SDS011;10938;44.794;-0.676;2023-05-29T01:54:43;6.40;;;4.00;;
21554;SDS011;10938;44.794;-0.676;2023-05-29T01:57:08;6.05;;;3.80;;
21554;SDS011;10938;44.794;-0.676;2023-05-29T01:59:34;5.70;;;3.70;;
21554;SDS011;10938;44.794;-0.676;2023-05-29T02:02:09;5.38;;;3.55;;
21554;SDS011;10938;44.794;-0.676;2023-05-29T02:04:35;6.28;;;3.40;;
21554;SDS011;10938;44.794;-0.676;2023-05-29T02:07:00;4.77;;;3.60;;
21554;SDS011;10938;44.794;-0.676;2023-05-29T02:09:25;6.72;;;4.00;;
21554;SDS011;10938;44.794;-0.676;2023-05-29T02:11:51;7.75;;;4.07;;
21554;SDS011;10938;44.794;-0.676;2023-05-29T02:14:16;7.13;;;3.63;;
21554;SDS011;10938;44.794;-0.676;2023-05-29T02:16:41;5.93;;;3.47;;
21554;SDS011;10938;44.794;-0.676;2023-05-29T02:19:09;4.43;;;2.83;;
21554;SDS011;10938;44.794;-0.676;2023-05-29T02:21:37;5.18;;;3.30;;
21554;SDS011;10938;44.794;-0.676;2023-05-29T02:24:03;4.68;;;3.47;;
21554;SDS011;10938;44.794;-0.676;2023-05-29T02:26:28;4.97;;;3.42;;
21554;SDS011;10938;44.794;-0.676;2023-05-29T02:28:53;4.70;;;3.28;;
21554;SDS011;10938;44.794;-0.676;2023-05-29T02:31:19;7.60;;;3.40;;
21554;SDS011;10938;44.794;-0.676;2023-05-29T02:33:44;6.70;;;3.45;;
21554;SDS011;10938;44.794;-0.676;2023-05-29T02:36:09;5.97;;;3.40;;
21554;SDS011;10938;44.794;-0.676;2023-05-29T02:38:36;5.25;;;3.25;;
21554;SDS011;10938;44.794;-0.676;2023-05-29T02:41:02;4.20;;;3.10;;
21554;SDS011;10938;44.794;-0.676;2023-05-29T02:43:27;5.23;;;3.40;;
21554;SDS011;10938;44.794;-0.676;2023-05-29T02:45:52;7.93;;;4.03;;
21554;SDS011;10938;44.794;-0.676;2023-05-29T02:48:17;6.43;;;3.10;;
21554;SDS011;10938;44.794;-0.676;2023-05-29T02:50:43;6.53;;;3.33;;
21554;SDS011;10938;44.794;-0.676;2023-05-29T02:53:10;3.33;;;3.00;;
21554;SDS011;10938;44.794;-0.676;2023-05-29T02:55:35;4.75;;;3.03;;
21554;SDS011;10938;44.794;-0.676;2023-05-29T02:58:01;4.22;;;3.20;;
21554;SDS011;10938;44.794;-0.676;2023-05-29T03:00:27;5.32;;;3.20;;
21554;SDS011;10938;44.794;-0.676;2023-05-29T03:02:53;6.30;;;3.20;;
21554;SDS011;10938;44.794;-0.676;2023-05-29T03:05:19;5.18;;;2.83;;
21554;SDS011;10938;44.794;-0.676;2023-05-29T03:07:44;5.78;;;2.72;;
21554;SDS011;10938;44.794;-0.676;2023-05-29T03:10:09;7.30;;;3.47;;
21554;SDS011;10938;44.794;-0.676;2023-05-29T03:12:35;6.60;;;3.30;;
21554;SDS011;10938;44.794;-0.676;2023-05-29T03:15:00;7.00;;;3.03;;
21554;SDS011;10938;44.794;-0.676;2023-05-29T03:17:25;5.45;;;3.72;;
21554;SDS011;10938;44.794;-0.676;2023-05-29T03:19:51;4.32;;;3.00;;
21554;SDS011;10938;44.794;-0.676;2023-05-29T03:22:17;5.40;;;3.73;;
21554;SDS011;10938;44.794;-0.676;2023-05-29T03:24:42;4.90;;;3.10;;
21554;SDS011;10938;44.794;-0.676;2023-05-29T03:27:07;5.67;;;3.00;;
21554;SDS011;10938;44.794;-0.676;2023-05-29T03:29:33;4.97;;;3.40;;
21554;SDS011;10938;44.794;-0.676;2023-05-29T03:31:58;5.03;;;3.30;;
21554;SDS011;10938;44.794;-0.676;2023-05-29T03:34:24;5.82;;;3.30;;
21554;SDS011;10938;44.794;-0.676;2023-05-29T03:36:49;7.07;;;3.30;;
21554;SDS011;10938;44.794;-0.676;2023-05-29T03:39:14;6.13;;;3.25;;
21554;SDS011;10938;44.794;-0.676;2023-05-29T03:41:40;5.20;;;4.00;;
21554;SDS011;10938;44.794;-0.676;2023-05-29T03:44:05;5.30;;;3.20;;
21554;SDS011;10938;44.794;-0.676;2023-05-29T03:46:31;6.67;;;3.03;;
21554;SDS011;10938;44.794;-0.676;2023-05-29T03:48:56;5.20;;;3.08;;
21554;SDS011;10938;44.794;-0.676;2023-05-29T03:51:21;10.87;;;3.53;;
21554;SDS011;10938;44.794;-0.676;2023-05-29T03:53:47;5.00;;;3.38;;
21554;SDS011;10938;44.794;-0.676;2023-05-29T03:56:12;4.77;;;3.23;;
21554;SDS011;10938;44.794;-0.676;2023-05-29T03:58:37;7.95;;;3.70;;
21554;SDS011;10938;44.794;-0.676;2023-05-29T04:01:03;7.13;;;3.50;;
21554;SDS011;10938;44.794;-0.676;2023-05-29T04:03:29;7.25;;;3.65;;
21554;SDS011;10938;44.794;-0.676;2023-05-29T04:05:54;5.18;;;3.25;;
21554;SDS011;10938;44.794;-0.676;2023-05-29T04:08:20;4.95;;;3.58;;
21554;SDS011;10938;44.794;-0.676;2023-05-29T04:10:46;3.78;;;3.28;;
21554;SDS011;10938;44.794;-0.676;2023-05-29T04:13:11;7.13;;;3.50;;
21554;SDS011;10938;44.794;-0.676;2023-05-29T04:15:36;4.50;;;3.42;;
21554;SDS011;10938;44.794;-0.676;2023-05-29T04:18:02;4.40;;;3.60;;
21554;SDS011;10938;44.794;-0.676;2023-05-29T04:20:28;5.53;;;3.90;;
21554;SDS011;10938;44.794;-0.676;2023-05-29T04:22:53;7.53;;;4.10;;
21554;SDS011;10938;44.794;-0.676;2023-05-29T04:25:18;7.17;;;4.60;;
21554;SDS011;10938;44.794;-0.676;2023-05-29T04:27:44;6.72;;;3.75;;
21554;SDS011;10938;44.794;-0.676;2023-05-29T04:30:13;7.97;;;3.38;;
21554;SDS011;10938;44.794;-0.676;2023-05-29T04:32:39;5.80;;;4.05;;
21554;SDS011;10938;44.794;-0.676;2023-05-29T04:35:05;6.50;;;3.53;;
21554;SDS011;10938;44.794;-0.676;2023-05-29T04:37:30;7.78;;;4.20;;
21554;SDS011;10938;44.794;-0.676;2023-05-29T04:40:01;6.30;;;3.45;;
21554;SDS011;10938;44.794;-0.676;2023-05-29T04:42:29;5.80;;;3.90;;
21554;SDS011;10938;44.794;-0.676;2023-05-29T04:44:58;5.55;;;3.90;;
21554;SDS011;10938;44.794;-0.676;2023-05-29T04:47:25;7.57;;;3.83;;
21554;SDS011;10938;44.794;-0.676;2023-05-29T04:49:51;9.60;;;3.70;;
21554;SDS011;10938;44.794;-0.676;2023-05-29T04:52:16;5.03;;;3.60;;
21554;SDS011;10938;44.794;-0.676;2023-05-29T04:54:42;7.07;;;3.47;;
21554;SDS011;10938;44.794;-0.676;2023-05-29T04:57:07;5.88;;;3.65;;
21554;SDS011;10938;44.794;-0.676;2023-05-29T04:59:33;6.03;;;3.58;;
21554;SDS011;10938;44.794;-0.676;2023-05-29T05:01:58;5.90;;;4.20;;
21554;SDS011;10938;44.794;-0.676;2023-05-29T05:04:24;4.70;;;3.40;;
21554;SDS011;10938;44.794;-0.676;2023-05-29T05:06:49;7.37;;;3.60;;
21554;SDS011;10938;44.794;-0.676;2023-05-29T05:09:14;7.78;;;4.50;;
21554;SDS011;10938;44.794;-0.676;2023-05-29T05:11:40;6.27;;;4.07;;
21554;SDS011;10938;44.794;-0.676;2023-05-29T05:14:05;6.27;;;3.90;;
21554;SDS011;10938;44.794;-0.676;2023-05-29T05:16:30;7.37;;;4.07;;
21554;SDS011;10938;44.794;-0.676;2023-05-29T05:18:56;6.88;;;3.88;;
21554;SDS011;10938;44.794;-0.676;2023-05-29T05:21:21;6.77;;;4.27;;
21554;SDS011;10938;44.794;-0.676;2023-05-29T05:23:47;7.87;;;4.60;;
21554;SDS011;10938;44.794;-0.676;2023-05-29T05:26:12;7.47;;;4.40;;
21554;SDS011;10938;44.794;-0.676;2023-05-29T05:28:37;5.90;;;4.20;;
21554;SDS011;10938;44.794;-0.676;2023-05-29T05:31:02;7.03;;;4.53;;
21554;SDS011;10938;44.794;-0.676;2023-05-29T05:33:28;5.17;;;3.77;;
21554;SDS011;10938;44.794;-0.676;2023-05-29T05:35:53;7.67;;;4.17;;
21554;SDS011;10938;44.794;-0.676;2023-05-29T05:38:18;8.83;;;4.60;;
21554;SDS011;10938;44.794;-0.676;2023-05-29T05:40:44;5.93;;;4.13;;
21554;SDS011;10938;44.794;-0.676;2023-05-29T05:43:10;13.25;;;5.28;;
21554;SDS011;10938;44.794;-0.676;2023-05-29T05:45:35;7.70;;;4.05;;
21554;SDS011;10938;44.794;-0.676;2023-05-29T05:48:01;9.77;;;4.13;;
21554;SDS011;10938;44.794;-0.676;2023-05-29T05:50:26;6.53;;;4.05;;
21554;SDS011;10938;44.794;-0.676;2023-05-29T05:52:52;7.60;;;4.67;;
21554;SDS011;10938;44.794;-0.676;2023-05-29T05:55:17;9.30;;;4.50;;
21554;SDS011;10938;44.794;-0.676;2023-05-29T05:57:42;6.60;;;4.33;;
21554;SDS011;10938;44.794;-0.676;2023-05-29T06:00:08;5.97;;;4.27;;
21554;SDS011;10938;44.794;-0.676;2023-05-29T06:02:42;7.97;;;4.30;;
21554;SDS011;10938;44.794;-0.676;2023-05-29T06:05:09;6.40;;;4.20;;
21554;SDS011;10938;44.794;-0.676;2023-05-29T06:07:35;4.40;;;3.60;;
21554;SDS011;10938;44.794;-0.676;2023-05-29T06:10:00;7.38;;;4.22;;
21554;SDS011;10938;44.794;-0.676;2023-05-29T06:12:26;7.63;;;4.18;;
21554;SDS011;10938;44.794;-0.676;2023-05-29T06:14:51;4.43;;;3.80;;
21554;SDS011;10938;44.794;-0.676;2023-05-29T06:17:16;5.73;;;4.17;;
21554;SDS011;10938;44.794;-0.676;2023-05-29T06:19:42;5.73;;;3.90;;
21554;SDS011;10938;44.794;-0.676;2023-05-29T06:22:07;7.43;;;4.20;;
21554;SDS011;10938;44.794;-0.676;2023-05-29T06:24:32;6.90;;;4.40;;
21554;SDS011;10938;44.794;-0.676;2023-05-29T06:26:57;6.73;;;4.30;;
21554;SDS011;10938;44.794;-0.676;2023-05-29T06:29:23;3.95;;;3.58;;
21554;SDS011;10938;44.794;-0.676;2023-05-29T06:31:48;8.00;;;4.20;;
21554;SDS011;10938;44.794;-0.676;2023-05-29T06:34:13;9.37;;;4.63;;
21554;SDS011;10938;44.794;-0.676;2023-05-29T06:36:39;4.90;;;4.27;;
21554;SDS011;10938;44.794;-0.676;2023-05-29T06:39:05;6.60;;;3.90;;
21554;SDS011;10938;44.794;-0.676;2023-05-29T06:41:30;8.73;;;4.32;;
21554;SDS011;10938;44.794;-0.676;2023-05-29T06:43:56;4.93;;;4.30;;
21554;SDS011;10938;44.794;-0.676;2023-05-29T06:46:21;6.17;;;4.43;;
21554;SDS011;10938;44.794;-0.676;2023-05-29T06:48:46;5.97;;;4.43;;
21554;SDS011;10938;44.794;-0.676;2023-05-29T06:51:12;6.93;;;4.72;;
21554;SDS011;10938;44.794;-0.676;2023-05-29T06:53:37;6.30;;;4.30;;
21554;SDS011;10938;44.794;-0.676;2023-05-29T06:56:03;10.30;;;4.93;;
21554;SDS011;10938;44.794;-0.676;2023-05-29T06:58:29;7.18;;;4.90;;
21554;SDS011;10938;44.794;-0.676;2023-05-29T07:00:54;9.57;;;5.00;;
21554;SDS011;10938;44.794;-0.676;2023-05-29T07:03:20;9.73;;;5.50;;
21554;SDS011;10938;44.794;-0.676;2023-05-29T07:05:45;5.60;;;4.70;;
21554;SDS011;10938;44.794;-0.676;2023-05-29T07:08:10;6.57;;;4.90;;
21554;SDS011;10938;44.794;-0.676;2023-05-29T07:10:36;9.43;;;6.30;;
21554;SDS011;10938;44.794;-0.676;2023-05-29T07:13:01;7.83;;;6.37;;
21554;SDS011;10938;44.794;-0.676;2023-05-29T07:15:26;7.00;;;5.53;;
21554;SDS011;10938;44.794;-0.676;2023-05-29T07:17:51;11.13;;;6.70;;
21554;SDS011;10938;44.794;-0.676;2023-05-29T07:20:16;8.63;;;5.90;;
21554;SDS011;10938;44.794;-0.676;2023-05-29T07:22:44;7.05;;;5.50;;
21554;SDS011;10938;44.794;-0.676;2023-05-29T07:25:09;10.32;;;5.93;;
21554;SDS011;10938;44.794;-0.676;2023-05-29T07:27:34;7.03;;;6.17;;
21554;SDS011;10938;44.794;-0.676;2023-05-29T07:30:00;7.93;;;6.88;;
21554;SDS011;10938;44.794;-0.676;2023-05-29T07:32:26;8.53;;;6.37;;
21554;SDS011;10938;44.794;-0.676;2023-05-29T07:34:51;8.23;;;5.77;;
21554;SDS011;10938;44.794;-0.676;2023-05-29T07:37:17;7.57;;;6.05;;
21554;SDS011;10938;44.794;-0.676;2023-05-29T07:39:44;5.90;;;5.30;;
21554;SDS011;10938;44.794;-0.676;2023-05-29T07:42:09;8.45;;;6.32;;
21554;SDS011;10938;44.794;-0.676;2023-05-29T07:44:35;9.47;;;6.23;;
21554;SDS011;10938;44.794;-0.676;2023-05-29T07:47:00;9.55;;;6.20;;
21554;SDS011;10938;44.794;-0.676;2023-05-29T07:49:25;7.03;;;6.03;;
21554;SDS011;10938;44.794;-0.676;2023-05-29T07:51:51;7.40;;;6.20;;
21554;SDS011;10938;44.794;-0.676;2023-05-29T07:54:16;8.23;;;6.80;;
21554;SDS011;10938;44.794;-0.676;2023-05-29T07:56:46;7.72;;;6.00;;
21554;SDS011;10938;44.794;-0.676;2023-05-29T07:59:11;7.63;;;6.30;;
21554;SDS011;10938;44.794;-0.676;2023-05-29T08:01:37;10.63;;;7.43;;
21554;SDS011;10938;44.794;-0.676;2023-05-29T08:04:02;9.13;;;7.35;;
21554;SDS011;10938;44.794;-0.676;2023-05-29T08:06:28;10.13;;;6.88;;
21554;SDS011;10938;44.794;-0.676;2023-05-29T08:08:53;8.03;;;7.03;;
21554;SDS011;10938;44.794;-0.676;2023-05-29T08:11:19;9.60;;;6.13;;
21554;SDS011;10938;44.794;-0.676;2023-05-29T08:13:44;11.65;;;6.88;;
21554;SDS011;10938;44.794;-0.676;2023-05-29T08:16:10;8.98;;;6.78;;
21554;SDS011;10938;44.794;-0.676;2023-05-29T08:18:35;8.33;;;6.40;;
21554;SDS011;10938;44.794;-0.676;2023-05-29T08:21:01;9.75;;;7.45;;
21554;SDS011;10938;44.794;-0.676;2023-05-29T08:23:26;12.60;;;6.07;;
21554;SDS011;10938;44.794;-0.676;2023-05-29T08:25:52;9.73;;;7.27;;
21554;SDS011;10938;44.794;-0.676;2023-05-29T08:28:17;10.77;;;6.77;;
21554;SDS011;10938;44.794;-0.676;2023-05-29T08:30:42;8.93;;;6.83;;
21554;SDS011;10938;44.794;-0.676;2023-05-29T08:33:07;6.50;;;5.90;;
21554;SDS011;10938;44.794;-0.676;2023-05-29T08:35:33;11.23;;;6.73;;
21554;SDS011;10938;44.794;-0.676;2023-05-29T08:37:59;8.18;;;7.25;;
21554;SDS011;10938;44.794;-0.676;2023-05-29T08:40:24;6.82;;;6.15;;
21554;SDS011;10938;44.794;-0.676;2023-05-29T08:43:00;7.73;;;5.93;;
21554;SDS011;10938;44.794;-0.676;2023-05-29T08:45:28;8.00;;;6.70;;
21554;SDS011;10938;44.794;-0.676;2023-05-29T08:47:55;7.90;;;7.07;;
21554;SDS011;10938;44.794;-0.676;2023-05-29T08:50:23;8.70;;;6.35;;
21554;SDS011;10938;44.794;-0.676;2023-05-29T08:52:48;9.37;;;7.20;;
21554;SDS011;10938;44.794;-0.676;2023-05-29T08:55:14;10.07;;;6.90;;
21554;SDS011;10938;44.794;-0.676;2023-05-29T08:57:39;11.50;;;7.28;;
21554;SDS011;10938;44.794;-0.676;2023-05-29T09:00:05;9.95;;;7.13;;
21554;SDS011;10938;44.794;-0.676;2023-05-29T09:02:37;8.63;;;6.22;;
21554;SDS011;10938;44.794;-0.676;2023-05-29T09:05:03;10.63;;;6.78;;
21554;SDS011;10938;44.794;-0.676;2023-05-29T09:07:29;8.77;;;6.07;;
21554;SDS011;10938;44.794;-0.676;2023-05-29T09:09:54;11.32;;;6.38;;
21554;SDS011;10938;44.794;-0.676;2023-05-29T09:12:20;10.55;;;7.10;;
21554;SDS011;10938;44.794;-0.676;2023-05-29T09:14:45;8.80;;;6.63;;
21554;SDS011;10938;44.794;-0.676;2023-05-29T09:17:11;8.60;;;5.50;;
21554;SDS011;10938;44.794;-0.676;2023-05-29T09:19:37;8.45;;;6.35;;
21554;SDS011;10938;44.794;-0.676;2023-05-29T09:22:08;7.10;;;5.80;;
21554;SDS011;10938;44.794;-0.676;2023-05-29T09:24:36;9.23;;;6.10;;
21554;SDS011;10938;44.794;-0.676;2023-05-29T09:27:01;8.38;;;6.38;;
21554;SDS011;10938;44.794;-0.676;2023-05-29T09:29:32;8.82;;;6.72;;
21554;SDS011;10938;44.794;-0.676;2023-05-29T09:31:58;8.85;;;6.70;;
21554;SDS011;10938;44.794;-0.676;2023-05-29T09:34:23;6.87;;;6.07;;
21554;SDS011;10938;44.794;-0.676;2023-05-29T09:36:50;9.00;;;6.78;;
21554;SDS011;10938;44.794;-0.676;2023-05-29T09:39:16;11.13;;;6.47;;
21554;SDS011;10938;44.794;-0.676;2023-05-29T09:41:46;9.80;;;7.18;;
21554;SDS011;10938;44.794;-0.676;2023-05-29T09:44:13;10.30;;;6.10;;
21554;SDS011;10938;44.794;-0.676;2023-05-29T09:46:42;8.55;;;6.75;;
21554;SDS011;10938;44.794;-0.676;2023-05-29T09:49:16;8.73;;;5.75;;
21554;SDS011;10938;44.794;-0.676;2023-05-29T09:51:47;8.73;;;6.50;;
21554;SDS011;10938;44.794;-0.676;2023-05-29T09:54:17;11.90;;;6.30;;
21554;SDS011;10938;44.794;-0.676;2023-05-29T09:56:42;11.63;;;7.03;;
21554;SDS011;10938;44.794;-0.676;2023-05-29T09:59:12;9.27;;;6.40;;
21554;SDS011;10938;44.794;-0.676;2023-05-29T10:01:41;16.08;;;6.25;;
21554;SDS011;10938;44.794;-0.676;2023-05-29T10:04:10;8.70;;;6.07;;
21554;SDS011;10938;44.794;-0.676;2023-05-29T10:06:36;7.53;;;5.72;;
21554;SDS011;10938;44.794;-0.676;2023-05-29T10:09:02;7.70;;;5.25;;
21554;SDS011;10938;44.794;-0.676;2023-05-29T10:11:31;8.63;;;6.57;;
21554;SDS011;10938;44.794;-0.676;2023-05-29T10:13:58;9.90;;;5.75;;
21554;SDS011;10938;44.794;-0.676;2023-05-29T10:16:25;8.63;;;5.90;;
21554;SDS011;10938;44.794;-0.676;2023-05-29T10:18:55;10.68;;;5.93;;
21554;SDS011;10938;44.794;-0.676;2023-05-29T10:21:21;10.27;;;5.95;;
21554;SDS011;10938;44.794;-0.676;2023-05-29T10:23:50;8.45;;;5.45;;
21554;SDS011;10938;44.794;-0.676;2023-05-29T10:28:44;9.30;;;5.60;;
21554;SDS011;10938;44.794;-0.676;2023-05-29T10:31:16;9.55;;;5.80;;
21554;SDS011;10938;44.794;-0.676;2023-05-29T10:36:14;10.00;;;6.13;;
21554;SDS011;10938;44.794;-0.676;2023-05-29T10:38:41;7.03;;;5.35;;
21554;SDS011;10938;44.794;-0.676;2023-05-29T10:43:57;7.95;;;5.45;;
21554;SDS011;10938;44.794;-0.676;2023-05-29T10:49:08;8.73;;;4.40;;
21554;SDS011;10938;44.794;-0.676;2023-05-29T10:51:40;10.10;;;5.72;;
21554;SDS011;10938;44.794;-0.676;2023-05-29T10:54:05;7.20;;;5.17;;
21554;SDS011;10938;44.794;-0.676;2023-05-29T10:56:31;8.30;;;5.57;;
21554;SDS011;10938;44.794;-0.676;2023-05-29T10:58:58;11.03;;;5.57;;
21554;SDS011;10938;44.794;-0.676;2023-05-29T11:01:24;8.93;;;5.30;;
21554;SDS011;10938;44.794;-0.676;2023-05-29T11:03:50;8.63;;;5.30;;
21554;SDS011;10938;44.794;-0.676;2023-05-29T11:06:20;9.15;;;4.95;;
21554;SDS011;10938;44.794;-0.676;2023-05-29T11:08:57;6.78;;;5.05;;
21554;SDS011;10938;44.794;-0.676;2023-05-29T11:11:32;8.30;;;5.03;;
21554;SDS011;10938;44.794;-0.676;2023-05-29T11:14:03;7.80;;;4.70;;
21554;SDS011;10938;44.794;-0.676;2023-05-29T11:18:55;7.80;;;5.43;;
21554;SDS011;10938;44.794;-0.676;2023-05-29T11:23:55;5.88;;;4.60;;
21554;SDS011;10938;44.794;-0.676;2023-05-29T11:26:23;8.40;;;5.32;;
21554;SDS011;10938;44.794;-0.676;2023-05-29T11:28:48;8.20;;;4.88;;
21554;SDS011;10938;44.794;-0.676;2023-05-29T11:31:14;7.40;;;5.40;;
21554;SDS011;10938;44.794;-0.676;2023-05-29T11:33:41;8.20;;;5.85;;
21554;SDS011;10938;44.794;-0.676;2023-05-29T11:36:10;10.57;;;7.45;;
21554;SDS011;10938;44.794;-0.676;2023-05-29T11:38:36;9.07;;;6.77;;
21554;SDS011;10938;44.794;-0.676;2023-05-29T11:41:01;18.65;;;9.45;;
21554;SDS011;10938;44.794;-0.676;2023-05-29T11:43:28;9.57;;;5.53;;
21554;SDS011;10938;44.794;-0.676;2023-05-29T11:45:53;9.10;;;5.30;;
21554;SDS011;10938;44.794;-0.676;2023-05-29T11:48:18;11.67;;;5.10;;
21554;SDS011;10938;44.794;-0.676;2023-05-29T11:50:44;7.13;;;5.20;;
21554;SDS011;10938;44.794;-0.676;2023-05-29T11:53:09;7.80;;;5.40;;
21554;SDS011;10938;44.794;-0.676;2023-05-29T11:55:36;10.43;;;5.78;;
21554;SDS011;10938;44.794;-0.676;2023-05-29T11:58:02;10.10;;;5.10;;
21554;SDS011;10938;44.794;-0.676;2023-05-29T12:00:32;8.13;;;5.25;;
21554;SDS011;10938;44.794;-0.676;2023-05-29T12:02:58;6.97;;;5.25;;
21554;SDS011;10938;44.794;-0.676;2023-05-29T12:05:28;11.32;;;5.65;;
21554;SDS011;10938;44.794;-0.676;2023-05-29T12:07:54;8.10;;;5.00;;
21554;SDS011;10938;44.794;-0.676;2023-05-29T12:10:22;8.52;;;5.53;;
21554;SDS011;10938;44.794;-0.676;2023-05-29T12:12:54;8.10;;;4.90;;
21554;SDS011;10938;44.794;-0.676;2023-05-29T12:15:20;10.88;;;5.70;;
21554;SDS011;10938;44.794;-0.676;2023-05-29T12:17:47;11.48;;;5.30;;
21554;SDS011;10938;44.794;-0.676;2023-05-29T12:20:13;9.25;;;5.35;;
21554;SDS011;10938;44.794;-0.676;2023-05-29T12:22:40;8.30;;;5.30;;
21554;SDS011;10938;44.794;-0.676;2023-05-29T12:25:12;12.18;;;5.68;;
21554;SDS011;10938;44.794;-0.676;2023-05-29T12:27:38;8.15;;;4.93;;
21554;SDS011;10938;44.794;-0.676;2023-05-29T12:30:10;6.72;;;4.93;;
21554;SDS011;10938;44.794;-0.676;2023-05-29T12:32:39;7.95;;;5.15;;
21554;SDS011;10938;44.794;-0.676;2023-05-29T12:35:21;8.90;;;5.07;;
21554;SDS011;10938;44.794;-0.676;2023-05-29T12:38:04;7.97;;;4.60;;
21554;SDS011;10938;44.794;-0.676;2023-05-29T12:40:33;7.95;;;4.88;;
21554;SDS011;10938;44.794;-0.676;2023-05-29T12:43:07;9.48;;;4.95;;
21554;SDS011;10938;44.794;-0.676;2023-05-29T12:45:35;8.02;;;4.43;;
21554;SDS011;10938;44.794;-0.676;2023-05-29T12:48:02;10.05;;;4.97;;
21554;SDS011;10938;44.794;-0.676;2023-05-29T12:50:31;8.20;;;4.95;;
21554;SDS011;10938;44.794;-0.676;2023-05-29T12:55:29;9.45;;;4.75;;
21554;SDS011;10938;44.794;-0.676;2023-05-29T12:57:55;6.75;;;4.18;;
21554;SDS011;10938;44.794;-0.676;2023-05-29T13:00:21;10.05;;;5.30;;
21554;SDS011;10938;44.794;-0.676;2023-05-29T13:02:46;8.80;;;4.70;;
21554;SDS011;10938;44.794;-0.676;2023-05-29T13:05:13;9.32;;;4.93;;
21554;SDS011;10938;44.794;-0.676;2023-05-29T13:07:38;7.10;;;5.00;;
21554;SDS011;10938;44.794;-0.676;2023-05-29T13:10:04;9.43;;;5.32;;
21554;SDS011;10938;44.794;-0.676;2023-05-29T13:12:29;6.82;;;4.97;;
21554;SDS011;10938;44.794;-0.676;2023-05-29T13:14:54;7.10;;;4.83;;
21554;SDS011;10938;44.794;-0.676;2023-05-29T13:17:23;10.52;;;4.90;;
21554;SDS011;10938;44.794;-0.676;2023-05-29T13:19:48;9.30;;;4.63;;
21554;SDS011;10938;44.794;-0.676;2023-05-29T13:22:14;5.00;;;3.92;;
21554;SDS011;10938;44.794;-0.676;2023-05-29T13:24:39;6.13;;;4.53;;
21554;SDS011;10938;44.794;-0.676;2023-05-29T13:27:05;7.90;;;4.77;;
21554;SDS011;10938;44.794;-0.676;2023-05-29T13:29:31;8.35;;;4.55;;
21554;SDS011;10938;44.794;-0.676;2023-05-29T13:31:56;8.85;;;4.55;;
21554;SDS011;10938;44.794;-0.676;2023-05-29T13:34:21;7.18;;;4.53;;
21554;SDS011;10938;44.794;-0.676;2023-05-29T13:36:49;6.78;;;4.60;;
21554;SDS011;10938;44.794;-0.676;2023-05-29T13:39:14;7.67;;;4.47;;
21554;SDS011;10938;44.794;-0.676;2023-05-29T13:41:40;5.30;;;3.77;;
21554;SDS011;10938;44.794;-0.676;2023-05-29T13:44:05;7.03;;;4.77;;
21554;SDS011;10938;44.794;-0.676;2023-05-29T13:46:30;6.85;;;4.15;;
21554;SDS011;10938;44.794;-0.676;2023-05-29T13:48:56;5.90;;;4.13;;
21554;SDS011;10938;44.794;-0.676;2023-05-29T13:51:21;6.77;;;4.60;;
21554;SDS011;10938;44.794;-0.676;2023-05-29T13:53:46;6.95;;;4.50;;
21554;SDS011;10938;44.794;-0.676;2023-05-29T13:56:11;7.93;;;4.53;;
21554;SDS011;10938;44.794;-0.676;2023-05-29T13:58:37;8.23;;;4.43;;
21554;SDS011;10938;44.794;-0.676;2023-05-29T14:01:02;7.85;;;4.78;;
21554;SDS011;10938;44.794;-0.676;2023-05-29T14:03:27;10.13;;;4.90;;
21554;SDS011;10938;44.794;-0.676;2023-05-29T14:05:56;6.88;;;4.75;;
21554;SDS011;10938;44.794;-0.676;2023-05-29T14:08:21;8.38;;;4.72;;
21554;SDS011;10938;44.794;-0.676;2023-05-29T14:10:47;11.07;;;4.93;;
21554;SDS011;10938;44.794;-0.676;2023-05-29T14:13:12;8.63;;;4.55;;
21554;SDS011;10938;44.794;-0.676;2023-05-29T14:15:37;5.68;;;4.35;;
21554;SDS011;10938;44.794;-0.676;2023-05-29T14:18:03;9.30;;;4.40;;
21554;SDS011;10938;44.794;-0.676;2023-05-29T14:20:28;6.95;;;4.47;;
21554;SDS011;10938;44.794;-0.676;2023-05-29T14:22:54;7.28;;;4.30;;
21554;SDS011;10938;44.794;-0.676;2023-05-29T14:25:19;6.53;;;4.22;;
21554;SDS011;10938;44.794;-0.676;2023-05-29T14:27:44;7.95;;;4.63;;
21554;SDS011;10938;44.794;-0.676;2023-05-29T14:30:10;4.73;;;3.90;;
21554;SDS011;10938;44.794;-0.676;2023-05-29T14:32:35;9.02;;;5.32;;
21554;SDS011;10938;44.794;-0.676;2023-05-29T14:35:01;9.40;;;4.70;;
21554;SDS011;10938;44.794;-0.676;2023-05-29T14:37:26;6.15;;;4.20;;
21554;SDS011;10938;44.794;-0.676;2023-05-29T14:39:53;7.17;;;4.60;;
21554;SDS011;10938;44.794;-0.676;2023-05-29T14:42:18;5.70;;;4.30;;
21554;SDS011;10938;44.794;-0.676;2023-05-29T14:44:43;6.37;;;4.47;;
21554;SDS011;10938;44.794;-0.676;2023-05-29T14:47:08;7.67;;;4.60;;
21554;SDS011;10938;44.794;-0.676;2023-05-29T14:49:35;8.15;;;4.75;;
21554;SDS011;10938;44.794;-0.676;2023-05-29T14:52:01;10.50;;;5.00;;
21554;SDS011;10938;44.794;-0.676;2023-05-29T14:54:28;8.40;;;4.88;;
21554;SDS011;10938;44.794;-0.676;2023-05-29T14:56:53;6.63;;;4.60;;